createdAt,value
2019-01-16T00:00:50.142Z,73.20
2019-01-16T00:02:06.520Z,73.27
2019-01-16T00:03:40.074Z,73.34
2019-01-16T00:05:00.902Z,73.30
2019-01-16T00:06:40.199Z,73.42
2019-01-16T00:07:58.163Z,73.44
2019-01-16T00:09:33.224Z,73.49
2019-01-16T00:10:48.731Z,73.56
2019-01-16T00:12:07.932Z,73.61
2019-01-16T00:13:23.206Z,73.69
2019-01-16T00:15:02.312Z,73.72
2019-01-16T00:16:14.256Z,73.74
2019-01-16T00:17:38.340Z,73.69
2019-01-16T00:18:56.656Z,73.82
2019-01-16T00:20:15.671Z,73.89
2019-01-16T00:21:42.757Z,73.95
2019-01-16T00:23:22.036Z,73.95
2019-01-16T00:24:45.641Z,74.01
2019-01-16T00:26:07.739Z,73.98
2019-01-16T00:27:50.462Z,73.96
2019-01-16T00:29:13.583Z,73.96
2019-01-16T00:30:36.813Z,73.85
2019-01-16T00:32:00.128Z,73.82
2019-01-16T00:33:33.975Z,73.79
2019-01-16T00:34:48.925Z,73.82
2019-01-16T00:36:05.838Z,73.88
2019-01-16T00:37:33.196Z,73.97
2019-01-16T00:38:56.280Z,74.05
2019-01-16T00:40:24.483Z,74.11
2019-01-16T00:41:41.737Z,74.11
2019-01-16T00:42:55.992Z,74.16
2019-01-16T00:44:22.863Z,74.20
2019-01-16T00:45:44.120Z,74.30
2019-01-16T00:47:01.587Z,74.34
2019-01-16T00:48:15.068Z,74.46
2019-01-16T00:49:42.021Z,74.50
2019-01-16T00:50:58.379Z,74.57
2019-01-16T00:52:19.539Z,74.55
2019-01-16T00:53:58.732Z,74.62
2019-01-16T00:55:25.896Z,74.57
2019-01-16T00:56:43.812Z,74.58
2019-01-16T00:58:13.602Z,74.75
2019-01-16T00:59:36.286Z,74.82
2019-01-16T01:01:01.556Z,74.73
2019-01-16T01:02:44.958Z,74.84
2019-01-16T01:04:07.765Z,74.99
2019-01-16T01:05:30.910Z,75.14
2019-01-16T01:06:52.344Z,75.14
2019-01-16T01:08:15.025Z,75.20
2019-01-16T01:09:36.281Z,75.13
2019-01-16T01:11:09.496Z,75.14
2019-01-16T01:12:41.318Z,75.17
2019-01-16T01:14:04.391Z,75.17
2019-01-16T01:15:26.160Z,75.12
2019-01-16T01:16:53.320Z,75.08
2019-01-16T01:18:32.289Z,75.05
2019-01-16T01:19:55.901Z,74.99
2019-01-16T01:21:17.151Z,75.03
2019-01-16T01:22:41.505Z,75.16
2019-01-16T01:24:10.615Z,75.36
2019-01-16T01:25:37.940Z,75.53
2019-01-16T01:26:54.866Z,75.54
2019-01-16T01:28:19.235Z,75.50
2019-01-16T01:29:46.836Z,75.44
2019-01-16T01:31:03.438Z,75.36
2019-01-16T01:32:43.018Z,75.32
2019-01-16T01:34:16.241Z,75.26
2019-01-16T01:35:38.292Z,75.45
2019-01-16T01:37:01.757Z,75.56
2019-01-16T01:38:33.498Z,75.67
2019-01-16T01:40:03.992Z,75.61
2019-01-16T01:41:31.138Z,75.71
2019-01-16T01:42:49.949Z,75.69
2019-01-16T01:44:10.727Z,75.65
2019-01-16T01:45:40.450Z,75.72
2019-01-16T01:47:00.119Z,75.70
2019-01-16T01:48:26.994Z,75.65
2019-01-16T01:49:48.605Z,75.57
2019-01-16T01:51:12.249Z,75.62
2019-01-16T01:52:45.734Z,75.63
2019-01-16T01:54:13.145Z,75.61
2019-01-16T01:55:43.073Z,75.60
2019-01-16T01:57:03.582Z,75.67
2019-01-16T01:58:23.485Z,75.79
2019-01-16T01:59:46.207Z,75.98
2019-01-16T02:01:07.881Z,76.17
2019-01-16T02:02:35.011Z,76.25
2019-01-16T02:03:59.058Z,76.42
2019-01-16T02:05:16.503Z,76.46
2019-01-16T02:06:39.268Z,76.58
2019-01-16T02:08:01.973Z,76.63
2019-01-16T02:09:22.962Z,76.72
2019-01-16T02:10:46.835Z,76.77
2019-01-16T02:12:18.985Z,76.73
2019-01-16T02:13:43.894Z,76.64
2019-01-16T02:15:10.293Z,76.47
2019-01-16T02:16:43.574Z,76.32
2019-01-16T02:18:16.757Z,76.19
2019-01-16T02:19:47.166Z,76.05
2019-01-16T02:21:11.375Z,76.05
2019-01-16T02:22:32.181Z,75.97
2019-01-16T02:24:11.205Z,75.84
2019-01-16T02:25:34.479Z,75.88
2019-01-16T02:27:01.868Z,75.74
2019-01-16T02:28:29.805Z,75.80
2019-01-16T02:29:59.503Z,75.78
2019-01-16T02:31:17.775Z,75.70
2019-01-16T02:32:34.414Z,75.52
2019-01-16T02:34:08.963Z,75.65
2019-01-16T02:35:33.006Z,75.64
2019-01-16T02:36:54.136Z,75.53
2019-01-16T02:38:30.428Z,75.41
2019-01-16T02:39:57.402Z,75.50
2019-01-16T02:41:09.851Z,75.56
2019-01-16T02:42:28.815Z,75.49
2019-01-16T02:44:01.778Z,75.50
2019-01-16T02:45:22.111Z,75.50
2019-01-16T02:46:45.213Z,75.37
2019-01-16T02:48:08.267Z,75.36
2019-01-16T02:49:40.055Z,75.34
2019-01-16T02:51:03.658Z,75.24
2019-01-16T02:52:28.046Z,75.28
2019-01-16T02:53:52.555Z,75.27
2019-01-16T02:55:15.702Z,75.31
2019-01-16T02:56:38.708Z,75.30
2019-01-16T02:57:55.688Z,75.14
2019-01-16T02:59:19.739Z,75.31
2019-01-16T03:00:33.089Z,75.42
2019-01-16T03:02:00.540Z,75.38
2019-01-16T03:03:21.787Z,75.34
2019-01-16T03:04:55.258Z,75.18
2019-01-16T03:06:19.283Z,75.11
2019-01-16T03:07:35.732Z,75.11
2019-01-16T03:08:58.669Z,74.87
2019-01-16T03:10:22.366Z,75.05
2019-01-16T03:11:46.136Z,75.03
2019-01-16T03:13:10.617Z,75.02
2019-01-16T03:14:32.017Z,75.12
2019-01-16T03:15:47.442Z,75.20
2019-01-16T03:17:10.207Z,75.13
2019-01-16T03:18:22.570Z,75.18
2019-01-16T03:19:41.092Z,75.19
2019-01-16T03:21:04.212Z,75.04
2019-01-16T03:22:31.629Z,75.06
2019-01-16T03:23:54.907Z,75.14
2019-01-16T03:25:10.136Z,75.08
2019-01-16T03:26:27.437Z,75.02
2019-01-16T03:27:54.788Z,74.88
2019-01-16T03:29:10.573Z,74.87
2019-01-16T03:30:23.931Z,75.01
2019-01-16T03:32:04.169Z,75.05
2019-01-16T03:33:30.861Z,74.94
2019-01-16T03:34:45.456Z,74.99
2019-01-16T03:36:08.212Z,74.92
2019-01-16T03:37:47.740Z,74.81
2019-01-16T03:39:12.123Z,74.92
2019-01-16T03:40:29.216Z,75.05
2019-01-16T03:41:48.437Z,75.07
2019-01-16T03:43:31.425Z,75.18
2019-01-16T03:44:50.196Z,75.16
2019-01-16T03:46:11.127Z,75.09
2019-01-16T03:47:38.602Z,75.01
2019-01-16T03:49:13.612Z,75.06
2019-01-16T03:50:29.603Z,75.13
2019-01-16T03:51:56.660Z,75.18
2019-01-16T03:53:19.666Z,75.31
2019-01-16T03:54:43.987Z,75.32
2019-01-16T03:56:01.878Z,75.36
2019-01-16T03:57:26.302Z,75.39
2019-01-16T03:58:50.643Z,75.57
2019-01-16T04:00:11.962Z,75.70
2019-01-16T04:01:39.500Z,75.85
2019-01-16T04:03:13.343Z,76.00
2019-01-16T04:04:37.461Z,76.08
2019-01-16T04:05:54.216Z,76.06
2019-01-16T04:07:17.369Z,76.13
2019-01-16T04:08:41.491Z,76.16
2019-01-16T04:10:24.261Z,76.18
2019-01-16T04:11:46.948Z,76.20
2019-01-16T04:13:09.627Z,76.15
2019-01-16T04:14:34.461Z,76.24
2019-01-16T04:16:06.284Z,76.19
2019-01-16T04:17:45.833Z,76.14
2019-01-16T04:19:08.213Z,76.23
2019-01-16T04:20:33.617Z,76.19
2019-01-16T04:21:58.569Z,76.15
2019-01-16T04:23:17.422Z,76.01
2019-01-16T04:24:39.729Z,75.79
2019-01-16T04:26:10.298Z,75.83
2019-01-16T04:27:36.013Z,75.70
2019-01-16T04:29:00.010Z,75.71
2019-01-16T04:30:31.551Z,75.62
2019-01-16T04:31:47.770Z,75.38
2019-01-16T04:33:23.877Z,75.48
2019-01-16T04:34:57.933Z,75.36
2019-01-16T04:36:14.885Z,75.13
2019-01-16T04:37:54.347Z,75.00
2019-01-16T04:39:18.302Z,75.02
2019-01-16T04:40:46.242Z,75.08
2019-01-16T04:42:17.298Z,75.01
2019-01-16T04:43:50.706Z,75.04
2019-01-16T04:45:27.733Z,74.98
2019-01-16T04:46:43.279Z,74.93
2019-01-16T04:48:19.816Z,74.79
2019-01-16T04:49:42.639Z,74.52
2019-01-16T04:50:59.251Z,74.68
2019-01-16T04:52:29.618Z,74.44
2019-01-16T04:54:01.555Z,74.34
2019-01-16T04:55:37.545Z,74.40
2019-01-16T04:57:04.857Z,74.49
2019-01-16T04:58:25.089Z,74.40
2019-01-16T04:59:38.313Z,74.30
2019-01-16T05:00:54.372Z,74.35
2019-01-16T05:02:18.481Z,74.18
2019-01-16T05:03:35.089Z,74.16
2019-01-16T05:04:51.871Z,74.05
2019-01-16T05:06:25.977Z,74.09
2019-01-16T05:07:53.574Z,73.89
2019-01-16T05:09:13.605Z,73.93
2019-01-16T05:10:27.136Z,73.81
2019-01-16T05:11:50.119Z,73.54
2019-01-16T05:13:14.218Z,73.45
2019-01-16T05:14:30.752Z,73.43
2019-01-16T05:15:47.951Z,73.20
2019-01-16T05:17:14.776Z,73.31
2019-01-16T05:18:34.136Z,73.34
2019-01-16T05:19:52.331Z,73.37
2019-01-16T05:21:22.938Z,73.24
2019-01-16T05:22:53.040Z,73.31
2019-01-16T05:24:32.532Z,73.18
2019-01-16T05:26:11.976Z,72.98
2019-01-16T05:27:51.052Z,72.88
2019-01-16T05:29:15.715Z,72.97
2019-01-16T05:30:41.800Z,72.74
2019-01-16T05:31:54.607Z,72.91
2019-01-16T05:33:09.597Z,72.80
2019-01-16T05:34:24.737Z,72.56
2019-01-16T05:35:55.149Z,72.53
2019-01-16T05:37:20.191Z,72.53
2019-01-16T05:38:39.750Z,72.30
2019-01-16T05:39:57.305Z,72.33
2019-01-16T05:41:24.546Z,72.17
2019-01-16T05:42:49.051Z,72.18
2019-01-16T05:44:13.027Z,71.78
2019-01-16T05:45:34.124Z,71.97
2019-01-16T05:46:48.464Z,71.79
2019-01-16T05:48:08.344Z,71.74
2019-01-16T05:49:46.590Z,71.72
2019-01-16T05:51:05.736Z,71.62
2019-01-16T05:52:20.652Z,71.40
2019-01-16T05:53:36.841Z,71.28
2019-01-16T05:54:59.755Z,71.28
2019-01-16T05:56:28.113Z,71.12
2019-01-16T05:57:50.881Z,71.11
2019-01-16T05:59:15.069Z,71.09
2019-01-16T06:00:33.289Z,70.92
2019-01-16T06:01:50.721Z,70.79
2019-01-16T06:03:30.088Z,70.83
2019-01-16T06:04:45.237Z,70.79
2019-01-16T06:06:07.952Z,70.68
2019-01-16T06:07:47.544Z,70.62
2019-01-16T06:09:11.907Z,70.43
2019-01-16T06:10:28.185Z,70.37
2019-01-16T06:11:53.023Z,70.33
2019-01-16T06:13:19.836Z,70.40
2019-01-16T06:14:43.016Z,70.45
2019-01-16T06:15:57.582Z,70.41
2019-01-16T06:17:15.443Z,70.02
2019-01-16T06:18:42.176Z,70.09
2019-01-16T06:20:16.875Z,70.00
2019-01-16T06:21:39.702Z,70.03
2019-01-16T06:22:59.200Z,70.01
2019-01-16T06:24:23.838Z,69.89
2019-01-16T06:25:47.030Z,69.56
2019-01-16T06:27:29.911Z,69.70
2019-01-16T06:28:54.531Z,69.70
2019-01-16T06:30:21.487Z,69.59
2019-01-16T06:31:47.697Z,69.59
2019-01-16T06:33:07.159Z,69.59
2019-01-16T06:34:34.989Z,69.55
2019-01-16T06:35:59.136Z,69.46
2019-01-16T06:37:22.535Z,69.29
2019-01-16T06:38:46.741Z,69.07
2019-01-16T06:40:27.127Z,69.18
2019-01-16T06:41:50.333Z,69.09
2019-01-16T06:43:04.316Z,69.05
2019-01-16T06:44:34.824Z,69.03
2019-01-16T06:46:08.209Z,69.03
2019-01-16T06:47:24.330Z,68.82
2019-01-16T06:48:47.272Z,68.59
2019-01-16T06:50:16.478Z,68.76
2019-01-16T06:51:39.476Z,68.86
2019-01-16T06:53:05.065Z,68.77
2019-01-16T06:54:27.752Z,68.78
2019-01-16T06:55:54.680Z,68.76
2019-01-16T06:57:18.998Z,68.54
2019-01-16T06:58:41.978Z,68.50
2019-01-16T07:00:18.069Z,68.51
2019-01-16T07:01:52.999Z,68.34
2019-01-16T07:03:23.771Z,68.42
2019-01-16T07:04:39.061Z,68.42
2019-01-16T07:06:03.719Z,68.36
2019-01-16T07:07:33.639Z,68.32
2019-01-16T07:08:53.994Z,68.17
2019-01-16T07:10:09.531Z,68.13
2019-01-16T07:11:34.350Z,68.12
2019-01-16T07:12:53.884Z,67.91
2019-01-16T07:14:20.240Z,67.94
2019-01-16T07:15:59.822Z,67.90
2019-01-16T07:17:23.083Z,67.90
2019-01-16T07:18:46.267Z,67.91
2019-01-16T07:20:23.946Z,67.90
2019-01-16T07:21:45.483Z,68.09
2019-01-16T07:22:59.692Z,68.04
2019-01-16T07:24:23.357Z,68.01
2019-01-16T07:25:54.707Z,68.00
2019-01-16T07:27:12.587Z,67.80
2019-01-16T07:28:33.061Z,67.93
2019-01-16T07:29:55.787Z,67.87
2019-01-16T07:31:22.759Z,67.76
2019-01-16T07:32:52.873Z,67.62
2019-01-16T07:34:06.898Z,67.62
2019-01-16T07:35:31.420Z,67.73
2019-01-16T07:36:55.095Z,67.72
2019-01-16T07:38:31.849Z,67.63
2019-01-16T07:39:47.586Z,67.37
2019-01-16T07:41:01.670Z,67.35
2019-01-16T07:42:25.545Z,67.47
2019-01-16T07:43:37.835Z,67.36
2019-01-16T07:45:00.904Z,67.15
2019-01-16T07:46:34.356Z,67.16
2019-01-16T07:48:02.105Z,67.27
2019-01-16T07:49:23.527Z,67.25
2019-01-16T07:50:43.289Z,67.17
2019-01-16T07:52:14.868Z,67.11
2019-01-16T07:53:42.188Z,66.97
2019-01-16T07:55:05.160Z,67.03
2019-01-16T07:56:18.807Z,66.86
2019-01-16T07:57:45.854Z,66.91
2019-01-16T07:59:25.808Z,66.87
2019-01-16T08:00:51.058Z,66.56
2019-01-16T08:02:18.366Z,66.64
2019-01-16T08:03:41.219Z,66.63
2019-01-16T08:05:14.451Z,66.38
2019-01-16T08:06:32.340Z,66.52
2019-01-16T08:07:54.545Z,66.28
2019-01-16T08:09:24.969Z,66.48
2019-01-16T08:10:46.215Z,66.48
2019-01-16T08:12:28.450Z,66.19
2019-01-16T08:13:59.121Z,66.18
2019-01-16T08:15:17.777Z,66.01
2019-01-16T08:16:42.065Z,66.03
2019-01-16T08:17:53.819Z,66.12
2019-01-16T08:19:24.749Z,66.02
2019-01-16T08:20:51.718Z,65.99
2019-01-16T08:22:06.476Z,65.96
2019-01-16T08:23:30.570Z,65.76
2019-01-16T08:25:01.165Z,65.65
2019-01-16T08:26:34.446Z,65.72
2019-01-16T08:27:57.857Z,65.62
2019-01-16T08:29:30.970Z,65.69
2019-01-16T08:30:53.950Z,65.66
2019-01-16T08:32:36.227Z,65.64
2019-01-16T08:34:06.651Z,65.68
2019-01-16T08:35:27.553Z,65.67
2019-01-16T08:37:00.971Z,65.78
2019-01-16T08:38:30.940Z,65.87
2019-01-16T08:39:46.963Z,65.77
2019-01-16T08:41:11.358Z,65.79
2019-01-16T08:42:44.575Z,65.75
2019-01-16T08:44:13.666Z,65.78
2019-01-16T08:45:25.794Z,65.47
2019-01-16T08:47:05.654Z,65.52
2019-01-16T08:48:36.446Z,65.42
2019-01-16T08:50:11.727Z,65.44
2019-01-16T08:51:42.227Z,65.25
2019-01-16T08:53:09.497Z,65.06
2019-01-16T08:54:32.475Z,65.07
2019-01-16T08:55:53.459Z,65.11
2019-01-16T08:57:20.433Z,65.11
2019-01-16T08:58:56.794Z,65.10
2019-01-16T09:00:23.800Z,64.91
2019-01-16T09:02:00.277Z,65.00
2019-01-16T09:03:23.234Z,64.97
2019-01-16T09:04:55.562Z,64.83
2019-01-16T09:06:11.341Z,64.83
2019-01-16T09:07:45.600Z,64.79
2019-01-16T09:09:21.699Z,64.87
2019-01-16T09:10:46.130Z,64.64
2019-01-16T09:12:10.314Z,64.59
2019-01-16T09:13:29.353Z,64.60
2019-01-16T09:14:53.535Z,64.45
2019-01-16T09:16:11.283Z,64.40
2019-01-16T09:17:43.963Z,64.42
2019-01-16T09:19:07.020Z,64.22
2019-01-16T09:20:39.961Z,64.02
2019-01-16T09:21:50.328Z,63.86
2019-01-16T09:23:14.661Z,64.04
2019-01-16T09:24:39.136Z,63.81
2019-01-16T09:26:02.028Z,63.84
2019-01-16T09:27:22.892Z,63.71
2019-01-16T09:29:02.691Z,63.59
2019-01-16T09:30:27.573Z,63.59
2019-01-16T09:32:01.380Z,63.67
2019-01-16T09:33:26.811Z,63.32
2019-01-16T09:34:51.685Z,63.41
2019-01-16T09:36:04.949Z,63.44
2019-01-16T09:37:28.161Z,63.74
2019-01-16T09:38:52.836Z,63.79
2019-01-16T09:40:16.040Z,63.68
2019-01-16T09:41:42.314Z,63.42
2019-01-16T09:43:06.706Z,63.38
2019-01-16T09:44:28.271Z,63.11
2019-01-16T09:45:44.307Z,63.19
2019-01-16T09:47:07.234Z,63.09
2019-01-16T09:48:30.505Z,63.00
2019-01-16T09:49:47.989Z,62.74
2019-01-16T09:51:23.547Z,62.92
2019-01-16T09:52:40.117Z,63.06
2019-01-16T09:53:53.859Z,63.03
2019-01-16T09:55:16.885Z,62.65
2019-01-16T09:56:47.680Z,62.55
2019-01-16T09:58:10.911Z,62.69
2019-01-16T09:59:42.651Z,62.65
2019-01-16T10:01:05.381Z,62.61
2019-01-16T10:02:32.451Z,62.43
2019-01-16T10:03:59.610Z,62.43
2019-01-16T10:05:24.685Z,62.46
2019-01-16T10:07:04.059Z,62.33
2019-01-16T10:08:46.638Z,62.50
2019-01-16T10:10:11.035Z,62.52
2019-01-16T10:11:30.315Z,62.52
2019-01-16T10:13:02.310Z,62.55
2019-01-16T10:14:25.977Z,62.45
2019-01-16T10:15:44.673Z,62.19
2019-01-16T10:17:11.945Z,62.36
2019-01-16T10:18:40.480Z,62.33
2019-01-16T10:20:14.103Z,62.31
2019-01-16T10:21:45.812Z,62.30
2019-01-16T10:23:18.767Z,62.37
2019-01-16T10:24:41.995Z,62.36
2019-01-16T10:26:03.472Z,62.40
2019-01-16T10:27:36.859Z,62.43
2019-01-16T10:29:10.163Z,62.38
2019-01-16T10:30:30.772Z,62.21
2019-01-16T10:31:58.638Z,62.34
2019-01-16T10:33:21.545Z,62.46
2019-01-16T10:34:46.028Z,62.35
2019-01-16T10:36:16.361Z,62.29
2019-01-16T10:37:37.503Z,62.23
2019-01-16T10:39:10.807Z,62.15
2019-01-16T10:40:33.591Z,61.99
2019-01-16T10:42:03.678Z,61.91
2019-01-16T10:43:23.131Z,61.87
2019-01-16T10:44:41.297Z,62.01
2019-01-16T10:46:04.114Z,62.03
2019-01-16T10:47:20.793Z,61.95
2019-01-16T10:48:49.654Z,61.69
2019-01-16T10:50:08.028Z,61.78
2019-01-16T10:51:31.559Z,61.83
2019-01-16T10:52:54.397Z,61.85
2019-01-16T10:54:10.410Z,61.83
2019-01-16T10:55:23.536Z,61.87
2019-01-16T10:56:50.637Z,61.85
2019-01-16T10:58:14.772Z,61.79
2019-01-16T10:59:45.268Z,61.63
2019-01-16T11:01:09.426Z,61.57
2019-01-16T11:02:32.396Z,61.70
2019-01-16T11:03:59.385Z,61.74
2019-01-16T11:05:22.678Z,61.64
2019-01-16T11:06:49.583Z,61.70
2019-01-16T11:08:22.646Z,61.62
2019-01-16T11:09:44.989Z,61.62
2019-01-16T11:11:07.937Z,61.54
2019-01-16T11:12:38.478Z,61.39
2019-01-16T11:14:01.545Z,61.37
2019-01-16T11:15:45.554Z,61.48
2019-01-16T11:17:05.629Z,61.52
2019-01-16T11:18:29.829Z,61.43
2019-01-16T11:19:52.934Z,61.50
2019-01-16T11:21:36.035Z,61.36
2019-01-16T11:22:58.789Z,61.40
2019-01-16T11:24:22.288Z,61.30
2019-01-16T11:25:52.675Z,61.39
2019-01-16T11:27:15.247Z,61.32
2019-01-16T11:28:39.172Z,61.22
2019-01-16T11:30:01.986Z,61.15
2019-01-16T11:31:24.765Z,61.08
2019-01-16T11:32:40.955Z,61.17
2019-01-16T11:34:03.651Z,61.14
2019-01-16T11:35:24.683Z,61.12
2019-01-16T11:36:54.513Z,61.13
2019-01-16T11:38:19.008Z,61.10
2019-01-16T11:39:31.990Z,60.92
2019-01-16T11:40:59.366Z,61.09
2019-01-16T11:42:26.439Z,61.22
2019-01-16T11:43:49.468Z,61.31
2019-01-16T11:45:14.957Z,61.12
2019-01-16T11:46:54.338Z,61.10
2019-01-16T11:48:21.546Z,61.17
2019-01-16T11:49:45.486Z,61.12
2019-01-16T11:51:09.878Z,61.23
2019-01-16T11:52:45.011Z,61.16
2019-01-16T11:54:08.080Z,61.22
2019-01-16T11:55:41.207Z,61.13
2019-01-16T11:56:56.916Z,61.15
2019-01-16T11:58:22.838Z,61.16
2019-01-16T11:59:46.979Z,61.21
2019-01-16T12:01:23.629Z,61.19
2019-01-16T12:02:39.735Z,61.08
2019-01-16T12:04:03.826Z,61.00
2019-01-16T12:05:32.660Z,61.15
2019-01-16T12:06:49.407Z,61.24
2019-01-16T12:08:23.078Z,61.20
2019-01-16T12:09:52.057Z,61.34
2019-01-16T12:11:15.226Z,61.34
2019-01-16T12:12:40.314Z,61.28
2019-01-16T12:14:19.853Z,61.37
2019-01-16T12:15:44.032Z,61.33
2019-01-16T12:17:11.270Z,61.22
2019-01-16T12:18:27.785Z,61.37
2019-01-16T12:19:52.177Z,61.49
2019-01-16T12:21:06.008Z,61.36
2019-01-16T12:22:36.735Z,61.35
2019-01-16T12:23:59.962Z,61.44
2019-01-16T12:25:16.654Z,61.43
2019-01-16T12:26:39.393Z,61.47
2019-01-16T12:28:06.224Z,61.42
2019-01-16T12:29:27.239Z,61.42
2019-01-16T12:30:50.542Z,61.43
2019-01-16T12:32:04.930Z,61.46
2019-01-16T12:33:31.155Z,61.47
2019-01-16T12:35:07.522Z,61.57
2019-01-16T12:36:35.350Z,61.48
2019-01-16T12:37:53.851Z,61.53
2019-01-16T12:39:16.992Z,61.42
2019-01-16T12:40:35.050Z,61.45
2019-01-16T12:42:05.598Z,61.42
2019-01-16T12:43:22.369Z,61.42
2019-01-16T12:44:45.733Z,61.37
2019-01-16T12:46:20.836Z,61.40
2019-01-16T12:47:45.006Z,61.30
2019-01-16T12:49:15.393Z,61.38
2019-01-16T12:50:39.755Z,61.44
2019-01-16T12:52:07.869Z,61.29
2019-01-16T12:53:38.441Z,61.38
2019-01-16T12:55:21.216Z,61.33
2019-01-16T12:56:36.436Z,61.26
2019-01-16T12:58:03.454Z,61.21
2019-01-16T12:59:32.902Z,61.27
2019-01-16T13:00:48.981Z,61.39
2019-01-16T13:02:01.918Z,61.28
2019-01-16T13:03:26.752Z,61.25
2019-01-16T13:04:43.643Z,61.25
2019-01-16T13:06:13.492Z,61.20
2019-01-16T13:07:32.342Z,61.21
2019-01-16T13:09:03.474Z,61.05
2019-01-16T13:10:58.391Z,61.03
2019-01-16T13:12:40.806Z,61.02
2019-01-16T13:13:57.206Z,60.84
2019-01-16T13:15:19.805Z,60.87
2019-01-16T13:16:54.158Z,60.97
2019-01-16T13:18:24.754Z,60.98
2019-01-16T13:19:47.766Z,61.03
2019-01-16T13:21:20.634Z,61.13
2019-01-16T13:22:46.053Z,61.05
2019-01-16T13:23:57.336Z,60.98
2019-01-16T13:25:21.696Z,61.00
2019-01-16T13:27:00.837Z,61.00
2019-01-16T13:28:27.888Z,60.93
2019-01-16T13:29:54.526Z,60.94
2019-01-16T13:31:17.590Z,60.81
2019-01-16T13:32:56.829Z,60.85
2019-01-16T13:34:30.373Z,60.90
2019-01-16T13:35:52.464Z,60.95
2019-01-16T13:37:26.078Z,61.01
2019-01-16T13:38:53.276Z,60.99
2019-01-16T13:40:18.869Z,60.92
2019-01-16T13:41:52.433Z,60.84
2019-01-16T13:43:31.711Z,60.77
2019-01-16T13:44:51.678Z,60.78
2019-01-16T13:46:18.750Z,60.81
2019-01-16T13:47:42.530Z,60.73
2019-01-16T13:49:05.244Z,60.67
2019-01-16T13:50:36.168Z,60.68
2019-01-16T13:52:15.733Z,60.68
2019-01-16T13:53:37.129Z,60.66
2019-01-16T13:54:51.320Z,60.60
2019-01-16T13:56:30.725Z,60.64
2019-01-16T13:57:48.007Z,60.74
2019-01-16T13:59:15.457Z,60.91
2019-01-16T14:00:38.510Z,60.93
2019-01-16T14:01:58.635Z,61.05
2019-01-16T14:03:14.798Z,61.06
2019-01-16T14:04:37.778Z,61.05
2019-01-16T14:06:07.858Z,60.95
2019-01-16T14:07:47.274Z,60.99
2019-01-16T14:09:15.484Z,60.93
2019-01-16T14:10:27.862Z,61.00
2019-01-16T14:11:52.221Z,60.92
2019-01-16T14:13:16.387Z,60.91
2019-01-16T14:14:35.579Z,60.80
2019-01-16T14:16:03.338Z,60.70
2019-01-16T14:17:36.592Z,60.79
2019-01-16T14:18:50.856Z,60.74
2019-01-16T14:20:10.839Z,60.72
2019-01-16T14:21:44.198Z,60.63
2019-01-16T14:23:06.019Z,60.69
2019-01-16T14:24:28.993Z,60.68
2019-01-16T14:26:02.822Z,60.60
2019-01-16T14:28:58.256Z,60.52
2019-01-16T14:30:10.922Z,60.61
2019-01-16T14:31:38.259Z,60.52
2019-01-16T14:33:02.662Z,60.44
2019-01-16T14:34:20.344Z,60.54
2019-01-16T14:35:39.012Z,60.61
2019-01-16T14:37:09.232Z,60.71
2019-01-16T14:38:52.502Z,60.86
2019-01-16T14:40:17.153Z,60.87
2019-01-16T14:41:50.419Z,60.87
2019-01-16T14:43:05.131Z,61.00
2019-01-16T14:44:34.850Z,61.07
2019-01-16T14:46:01.901Z,61.08
2019-01-16T14:47:28.472Z,61.21
2019-01-16T14:48:48.085Z,61.20
2019-01-16T14:50:19.090Z,61.27
2019-01-16T14:51:42.260Z,61.26
2019-01-16T14:53:05.079Z,61.26
2019-01-16T14:54:47.668Z,61.21
2019-01-16T14:56:11.992Z,61.18
2019-01-16T14:57:35.512Z,61.21
2019-01-16T14:58:59.907Z,61.16
2019-01-16T15:00:31.986Z,61.16
2019-01-16T15:02:01.909Z,61.15
2019-01-16T15:03:28.901Z,61.13
2019-01-16T15:04:52.038Z,61.20
2019-01-16T15:06:15.030Z,61.23
2019-01-16T15:07:38.420Z,61.25
2019-01-16T15:09:02.144Z,61.25
2019-01-16T15:10:24.159Z,61.18
2019-01-16T15:11:54.002Z,61.20
2019-01-16T15:13:11.111Z,61.18
2019-01-16T15:14:40.890Z,61.30
2019-01-16T15:15:56.697Z,61.28
2019-01-16T15:17:19.829Z,61.31
2019-01-16T15:18:56.494Z,61.31
2019-01-16T15:20:13.463Z,61.29
2019-01-16T15:21:36.201Z,61.35
2019-01-16T15:23:19.260Z,61.36
2019-01-16T15:24:42.064Z,61.40
2019-01-16T15:26:24.166Z,61.41
2019-01-16T15:27:50.943Z,61.52
2019-01-16T15:29:19.002Z,61.63
2019-01-16T15:30:41.469Z,61.67
2019-01-16T15:32:11.509Z,61.73
2019-01-16T15:33:34.546Z,61.86
2019-01-16T15:35:04.947Z,61.95
2019-01-16T15:36:32.174Z,61.99
2019-01-16T15:38:08.685Z,62.01
2019-01-16T15:39:31.414Z,62.02
2019-01-16T15:41:04.676Z,61.98
2019-01-16T15:42:35.665Z,61.87
2019-01-16T15:43:59.067Z,61.83
2019-01-16T15:45:29.653Z,61.82
2019-01-16T15:46:45.063Z,61.83
2019-01-16T15:48:08.014Z,61.88
2019-01-16T15:49:30.886Z,61.88
2019-01-16T15:51:00.886Z,61.90
2019-01-16T15:52:23.852Z,61.91
2019-01-16T15:53:46.835Z,61.92
2019-01-16T15:55:09.865Z,61.90
2019-01-16T15:56:24.262Z,61.95
2019-01-16T15:57:48.012Z,62.05
2019-01-16T15:59:12.576Z,62.14
2019-01-16T16:00:35.896Z,62.23
2019-01-16T16:01:54.380Z,62.29
2019-01-16T16:03:25.397Z,62.42
2019-01-16T16:04:57.734Z,62.60
2019-01-16T16:06:28.689Z,62.63
2019-01-16T16:07:46.814Z,62.60
2019-01-16T16:09:07.000Z,62.60
2019-01-16T16:10:30.251Z,62.63
2019-01-16T16:11:58.200Z,62.69
2019-01-16T16:13:21.459Z,62.74
2019-01-16T16:14:45.876Z,62.90
2019-01-16T16:16:09.176Z,62.91
2019-01-16T16:17:31.929Z,62.91
2019-01-16T16:18:53.633Z,62.94
2019-01-16T16:20:24.969Z,62.96
2019-01-16T16:22:07.387Z,62.97
2019-01-16T16:23:24.547Z,62.99
2019-01-16T16:24:48.942Z,63.03
2019-01-16T16:26:18.674Z,63.05
2019-01-16T16:27:37.744Z,63.09
2019-01-16T16:29:08.182Z,63.09
2019-01-16T16:30:48.756Z,63.20
2019-01-16T16:32:12.071Z,63.18
2019-01-16T16:33:32.670Z,63.17
2019-01-16T16:34:55.852Z,63.20
2019-01-16T16:36:18.293Z,63.28
2019-01-16T16:37:41.637Z,63.35
2019-01-16T16:39:04.482Z,63.43
2019-01-16T16:40:32.670Z,63.42
2019-01-16T16:41:55.546Z,63.41
2019-01-16T16:43:22.441Z,63.45
2019-01-16T16:44:45.434Z,63.52
2019-01-16T16:46:01.209Z,63.43
2019-01-16T16:47:21.117Z,63.48
2019-01-16T16:48:45.858Z,63.56
2019-01-16T16:50:04.293Z,63.57
2019-01-16T16:51:32.116Z,63.58
2019-01-16T16:52:56.521Z,63.47
2019-01-16T16:54:24.916Z,63.41
2019-01-16T16:55:49.193Z,63.35
2019-01-16T16:57:13.691Z,63.27
2019-01-16T16:58:54.469Z,63.21
2019-01-16T17:00:18.807Z,63.19
2019-01-16T17:01:58.559Z,63.28
2019-01-16T17:03:26.079Z,63.19
2019-01-16T17:04:48.941Z,63.34
2019-01-16T17:06:12.004Z,63.34
2019-01-16T17:07:38.904Z,63.37
2019-01-16T17:08:53.692Z,63.38
2019-01-16T17:10:22.311Z,63.49
2019-01-16T17:11:50.834Z,63.57
2019-01-16T17:13:13.743Z,63.50
2019-01-16T17:14:50.255Z,63.50
2019-01-16T17:16:14.535Z,63.44
2019-01-16T17:17:28.736Z,63.47
2019-01-16T17:19:05.356Z,63.48
2019-01-16T17:20:34.888Z,63.46
2019-01-16T17:22:02.095Z,63.41
2019-01-16T17:23:35.193Z,63.46
2019-01-16T17:24:50.125Z,63.46
2019-01-16T17:26:06.957Z,63.52
2019-01-16T17:27:46.930Z,63.60
2019-01-16T17:29:03.595Z,63.61
2019-01-16T17:30:24.157Z,63.58
2019-01-16T17:31:56.534Z,63.61
2019-01-16T17:33:20.825Z,63.70
2019-01-16T17:34:40.925Z,63.74
2019-01-16T17:36:03.533Z,63.75
2019-01-16T17:37:30.816Z,63.75
2019-01-16T17:38:46.211Z,63.83
2019-01-16T17:40:00.936Z,63.94
2019-01-16T17:41:24.206Z,64.05
2019-01-16T17:42:56.598Z,64.07
2019-01-16T17:44:14.347Z,64.05
2019-01-16T17:45:41.248Z,64.08
2019-01-16T17:46:59.905Z,64.15
2019-01-16T17:48:30.473Z,64.23
2019-01-16T17:50:06.597Z,64.29
2019-01-16T17:51:42.632Z,64.35
2019-01-16T17:53:01.482Z,64.40
2019-01-16T17:54:19.413Z,64.49
2019-01-16T17:55:43.442Z,64.52
2019-01-16T17:57:13.660Z,64.46
2019-01-16T17:58:37.095Z,64.33
2019-01-16T17:59:54.935Z,64.22
2019-01-16T18:01:17.978Z,64.26
2019-01-16T18:02:41.914Z,64.26
2019-01-16T18:04:01.136Z,64.26
2019-01-16T18:05:15.531Z,64.31
2019-01-16T18:06:46.996Z,64.31
2019-01-16T18:08:05.495Z,64.40
2019-01-16T18:09:30.344Z,64.51
2019-01-16T18:10:47.775Z,64.57
2019-01-16T18:12:10.834Z,64.66
2019-01-16T18:13:28.981Z,64.63
2019-01-16T18:14:53.116Z,64.66
2019-01-16T18:16:14.756Z,64.51
2019-01-16T18:17:54.889Z,64.45
2019-01-16T18:19:26.228Z,64.38